Latest Weather Observations for Goulburn Airport

IDN60901

Issued at 12:01 am EDT Monday 27 March 2017 (issued every 10 minutes, with the page automatically refreshed every 10 minutes)

About weather observations | Map of Canberra area stations | Latest observations for Canberra area | Other Formats
Station Details ID: 070330 Name: GOULBURN AIRPORT AWS Lat: -34.81 Lon: 149.73 Height: 640.0 m
Data from the previous 72 hours. | See also: Recent months at Goulburn Airport
Date/Time
EDT
Temp
°C
App
Temp
°C
Dew
Point
°C
Rel
Hum
%
Delta-T
°C
Wind Press
QNH
hPa
Press
MSL
hPa
Rain since
9am
mm
Dir  Spd
km/h
Gust
km/h
Spd
kts
Gust
kts
26/11:30pm 17.9 19.7 16.4 91 0.9 NNE 2 9 1 5 1019.2 1017.2 0.4
26/11:12pm 18.0 19.4 16.3 90 1.0 NNE 4 7 2 4 1019.3 1017.4 0.4
26/11:00pm 18.1 19.8 16.3 89 1.1 NNE 2 9 1 5 1019.3 1017.4 0.4
26/10:30pm 18.5 19.6 16.7 89 1.1 NNE 6 13 3 7 1019.2 1017.2 0.4
26/10:00pm 18.9 20.5 17.0 89 1.2 NW 4 11 2 6 1019.1 1017.1 0.4
26/09:30pm 18.3 19.6 16.1 87 1.3 NW 4 7 2 4 1018.9 1016.9 0.4
26/09:00pm 18.3 18.8 15.0 81 2.0 NNE 6 13 3 7 1018.4 1016.4 0.4
26/08:30pm 19.4 18.4 15.5 78 2.4 ENE 15 22 8 12 1018.0 1016.1 0.4
26/08:00pm 19.6 19.0 15.7 78 2.4 ENE 13 17 7 9 1017.6 1015.6 0.4
26/07:30pm 19.4 18.2 14.0 71 3.2 ENE 13 15 7 8 1017.3 1015.3 0.4
26/07:00pm 21.1 19.4 12.5 58 5.0 ENE 13 15 7 8 1017.1 1015.1 0.4
26/06:30pm 22.2 20.7 13.0 56 5.4 ENE 13 17 7 9 1017.0 1015.0 0.4
26/06:00pm 24.4 22.2 10.7 42 7.8 E 13 20 7 11 1016.6 1014.6 0.4
26/05:30pm 25.3 22.1 10.0 38 8.7 E 17 22 9 12 1016.4 1014.4 0.4
26/05:00pm 25.9 23.0 9.7 36 9.2 ESE 15 20 8 11 1016.1 1014.1 0.4
26/04:30pm 26.0 23.5 9.8 36 9.2 ESE 13 19 7 10 1016.2 1014.2 0.4
26/04:00pm 26.0 23.4 10.6 38 8.9 ESE 15 20 8 11 1016.2 1014.2 0.4
26/03:30pm 25.4 23.6 9.3 36 9.1 E 9 15 5 8 1016.4 1014.4 0.4
26/03:00pm 26.1 25.8 13.2 44 7.8 NNE 7 13 4 7 1016.7 1014.7 0.4
26/02:30pm 25.8 24.7 10.8 39 8.7 ESE 7 13 4 7 1016.9 1014.9 0.4
26/02:00pm 25.8 25.4 12.3 43 8.0 ENE 6 11 3 6 1017.1 1015.1 0.4
26/01:30pm 25.8 25.0 14.0 48 7.2 ESE 11 26 6 14 1017.4 1015.4 0.4
26/01:00pm 24.8 24.7 14.0 51 6.5 SE 7 17 4 9 1017.7 1015.7 0.4
26/12:30pm 23.9 24.0 14.0 54 6.0 SE 6 13 3 7 1017.9 1016.0 0.4
26/12:00pm 22.5 22.8 15.1 63 4.5 SE 7 11 4 6 1018.4 1016.4 0.2
26/11:30am 20.5 21.6 15.7 74 2.9 SW 4 7 2 4 1018.6 1016.6 0.2
26/11:00am 19.0 21.7 18.7 98 0.2 ESE 2 7 1 4 1018.6 1016.6 0.2
26/10:41am 17.5 19.6 17.3 99 0.1 SSE 2 6 1 3 1018.7 1016.7 0.2
26/10:30am 17.4 19.5 17.2 99 0.1 SSE 2 7 1 4 1018.8 1016.8 0.2
26/10:00am 15.0 16.2 14.8 99 0.1 NNW 2 6 1 3 1019.0 1017.0 0.0
26/09:30am 14.1 14.6 13.9 99 0.1 NNW 4 7 2 4 1018.8 1016.8 0.0
26/09:00am 13.7 13.5 13.5 99 0.1 N 7 9 4 5 1018.4 1016.4 3.8
26/08:30am 13.1 12.7 12.9 99 0.1 NNW 7 9 4 5 1017.9 1016.0 3.6
26/08:00am 12.7 12.3 12.5 99 0.1 N 6 7 3 4 1017.7 1015.7 3.6
26/07:30am 12.5 12.5 12.3 99 0.1 WNW 4 6 2 3 1017.6 1015.6 3.6
26/07:00am 12.6 13.4 12.4 99 0.1 CALM 0 0 0 0 1017.3 1015.3 3.6
26/06:30am 12.7 12.3 12.5 99 0.1 WNW 6 7 3 4 1016.9 1014.9 3.4
26/06:00am 13.3 12.9 13.1 99 0.1 WNW 7 9 4 5 1016.6 1014.6 3.4
26/05:30am 13.4 13.3 13.2 99 0.1 NNW 6 9 3 5 1016.2 1014.2 3.4
26/05:00am 13.7 14.8 13.5 99 0.1 CALM 0 0 0 0 1016.0 1014.0 3.2
26/04:30am 13.6 13.5 13.4 99 0.1 WNW 6 9 3 5 1016.2 1014.2 3.2
26/04:00am 13.8 13.6 13.6 99 0.1 WNW 7 9 4 5 1016.2 1014.2 3.2
26/03:30am 14.1 15.3 13.9 99 0.1 CALM 0 0 0 0 1016.3 1014.3 3.0
26/03:00am 14.0 14.0 13.7 98 0.2 S 6 7 3 4 1016.4 1014.4 3.0
26/02:30am 14.1 15.3 13.8 98 0.2 CALM 0 0 0 0 1016.6 1014.6 2.8
26/02:00am 14.1 14.9 13.8 98 0.2 S 2 6 1 3 1017.0 1015.0 2.6
26/01:30am 14.1 15.3 13.8 98 0.2 CALM 0 0 0 0 1017.1 1015.1 2.6
26/01:00am 14.0 14.8 13.7 98 0.2 S 2 7 1 4 1017.1 1015.1 2.4
26/12:30am 14.2 15.4 13.9 98 0.2 CALM 0 0 0 0 1017.4 1015.4 2.2
26/12:00am 14.0 15.2 13.7 98 0.2 CALM 0 0 0 0 1017.3 1015.3 2.0
 
Date/Time
EDT
Temp
°C
App
Temp
°C
Dew
Point
°C
Rel
Hum
%
Delta-T
°C
Wind Press
QNH
hPa
Press
MSL
hPa
Rain since
9am
mm
Dir  Spd
km/h
Gust
km/h
Spd
kts
Gust
kts
25/11:30pm 13.9 13.7 13.6 98 0.2 S 7 9 4 5 1017.4 1015.4 1.8
25/11:00pm 13.7 14.7 13.2 97 0.3 CALM 0 0 0 0 1017.4 1015.4 1.4
25/10:30pm 14.0 15.1 13.5 97 0.3 CALM 0 0 0 0 1017.3 1015.3 1.0
25/10:00pm 14.3 15.5 13.7 96 0.3 CALM 0 0 0 0 1017.2 1015.2 0.8
25/09:36pm 14.6 14.5 13.8 95 0.5 SE 7 9 4 5 1017.0 1015.0 0.8
25/09:30pm 14.5 14.5 13.7 95 0.5 SSE 6 9 3 5 1017.1 1015.1 0.8
25/09:00pm 15.4 16.5 14.6 95 0.5 NNW 2 7 1 4 1017.0 1015.0 0.8
25/08:30pm 16.3 16.8 15.5 95 0.5 NNW 7 9 4 5 1016.6 1014.6 0.8
25/08:00pm 16.1 16.4 15.0 93 0.7 NNW 7 9 4 5 1016.2 1014.2 0.6
25/07:30pm 17.1 17.9 15.8 92 0.8 NW 6 7 3 4 1015.9 1013.9 0.6
25/07:00pm 17.5 18.4 16.0 91 0.9 N 6 9 3 5 1016.0 1014.0 0.6
25/06:30pm 17.7 19.7 16.0 90 1.0 CALM 0 0 0 0 1015.7 1013.7 0.6
25/06:00pm 17.8 19.8 16.0 89 1.1 CALM 0 0 0 0 1015.9 1013.9 0.6
25/05:30pm 17.7 19.7 15.9 89 1.1 CALM 0 0 0 0 1015.5 1013.5 0.4
25/05:00pm 17.5 19.0 15.7 89 1.1 NW 2 6 1 3 1015.5 1013.5 0.4
25/04:30pm 17.4 18.2 15.9 91 0.9 NNW 6 7 3 4 1015.3 1013.3 0.4
25/04:00pm 17.0 17.7 15.5 91 0.9 N 6 9 3 5 1015.3 1013.3 0.4
25/03:30pm 16.7 17.3 15.2 91 0.9 NNE 6 9 3 5 1015.6 1013.6 0.4
25/03:00pm 16.6 17.5 15.1 91 0.9 NE 4 7 2 4 1016.1 1014.1 0.2
25/02:30pm 16.6 18.2 14.8 89 1.1 CALM 0 0 0 0 1016.4 1014.4 0.2
25/02:12pm 16.5 17.3 14.7 89 1.1 NE 4 9 2 5 1016.6 1014.6 0.2
25/02:00pm 16.3 17.7 14.5 89 1.1 CALM 0 0 0 0 1016.7 1014.7 0.2
25/01:47pm 16.7 18.4 15.1 90 1.0 CALM 0 0 0 0 1016.8 1014.8 0.2
25/01:30pm 16.3 17.7 14.5 89 1.1 CALM 0 0 0 0 1016.9 1014.9 0.2
25/01:00pm 16.6 17.9 14.2 86 1.4 CALM 0 0 0 0 1017.5 1015.5 0.2
25/12:30pm 16.9 16.8 14.0 83 1.7 WNW 7 7 4 4 1018.1 1016.2 0.0
25/12:08pm 17.8 17.2 13.5 76 2.5 WNW 9 13 5 7 1018.4 1016.4 0.0
25/12:00pm 18.0 17.6 12.9 72 2.9 NNW 7 13 4 7 1018.5 1016.5 0.0
25/11:56am 18.2 18.2 13.5 74 2.7 N 6 13 3 7 1018.5 1016.5 0.0
25/11:30am 18.7 18.6 13.8 73 2.9 NNE 7 15 4 8 1018.1 1016.2 0.0
25/11:00am 18.0 18.0 13.5 75 2.6 NNE 6 13 3 7 1018.6 1016.6 0.0
25/10:34am 16.7 16.8 12.8 78 2.2 ENE 4 9 2 5 1018.7 1016.7 0.0
25/10:30am 16.6 17.5 12.9 79 2.1 CALM 0 9 0 5 1018.7 1016.7 0.0
25/10:00am 16.1 15.7 13.0 82 1.8 ENE 7 13 4 7 1018.7 1016.7 0.0
25/09:30am 15.7 14.9 12.8 83 1.7 NE 9 13 5 7 1018.7 1016.7 0.0
25/09:00am 15.8 15.2 13.5 86 1.3 NE 9 11 5 6 1018.5 1016.5 14.4
25/08:30am 14.9 14.1 12.9 88 1.1 ENE 9 11 5 6 1018.5 1016.5 14.4
25/08:00am 14.1 14.6 12.7 91 0.8 NE 2 6 1 3 1018.5 1016.5 14.4
25/07:30am 13.7 14.0 12.3 91 0.8 NNE 2 7 1 4 1018.5 1016.5 14.4
25/07:00am 13.9 13.4 12.5 91 0.8 NE 7 9 4 5 1018.3 1016.3 14.4
25/06:30am 13.8 13.2 12.4 91 0.8 NE 7 9 4 5 1018.1 1016.2 14.4
25/06:29am 13.8 13.2 12.4 91 0.8 NE 7 11 4 6 1018.1 1016.2 14.4
25/06:20am 13.8 12.4 12.2 90 0.9 NE 11 15 6 8 1018.0 1016.1 14.4
25/06:00am 13.9 12.9 12.3 90 0.9 NE 9 13 5 7 1018.0 1016.1 14.4
25/05:50am 14.0 12.2 12.2 89 1.0 NE 13 17 7 9 1018.1 1016.2 14.4
25/05:30am 14.2 12.9 12.4 89 1.0 ENE 11 15 6 8 1018.3 1016.3 14.4
25/05:00am 14.4 13.5 12.6 89 1.0 ENE 9 13 5 7 1018.7 1016.7 14.4
25/04:30am 14.4 13.1 12.6 89 1.0 ENE 11 15 6 8 1018.5 1016.5 14.4
25/04:00am 14.6 12.9 12.6 88 1.1 ENE 13 17 7 9 1018.6 1016.6 14.4
25/03:30am 14.6 13.3 12.6 88 1.1 NE 11 15 6 8 1018.8 1016.8 14.4
25/03:00am 14.6 13.8 12.8 89 1.0 NE 9 13 5 7 1019.1 1017.1 14.4
25/02:55am 14.6 13.7 12.6 88 1.1 ENE 9 13 5 7 1019.1 1017.1 14.4
25/02:30am 14.7 13.5 12.7 88 1.1 ENE 11 15 6 8 1019.3 1017.4 14.4
25/02:00am 14.7 13.8 12.7 88 1.1 ENE 9 11 5 6 1019.9 1017.9 14.4
25/01:30am 14.7 13.1 12.7 88 1.1 ENE 13 17 7 9 1020.0 1018.0 14.4
25/01:00am 14.7 13.1 12.7 88 1.1 ENE 13 19 7 10 1020.3 1018.3 14.4
25/12:30am 14.6 13.5 13.0 90 0.9 ENE 11 15 6 8 1020.5 1018.5 14.4
25/12:00am 14.4 12.8 12.8 90 0.9 ENE 13 19 7 10 1020.9 1019.0 14.4
 
Date/Time
EDT
Temp
°C
App
Temp
°C
Dew
Point
°C
Rel
Hum
%
Delta-T
°C
Wind Press
QNH
hPa
Press
MSL
hPa
Rain since
9am
mm
Dir  Spd
km/h
Gust
km/h
Spd
kts
Gust
kts
24/11:30pm 14.5 13.0 13.0 91 0.9 E 13 19 7 10 1021.6 1019.6 14.4
24/11:00pm 14.6 12.7 13.1 91 0.9 E 15 20 8 11 1021.3 1019.4 14.4
24/10:30pm 14.6 13.2 13.3 92 0.7 ESE 13 19 7 10 1021.8 1019.8 14.4
24/10:00pm 14.6 12.7 13.0 90 0.9 E 15 20 8 11 1021.6 1019.6 14.4
24/09:48pm 14.6 12.7 13.0 90 0.9 E 15 20 8 11 1021.4 1019.5 14.4
24/09:47pm 14.6 12.7 13.0 90 0.9 E 15 19 8 10 1021.6 1019.6 14.4
24/09:30pm 14.6 13.5 13.1 91 0.9 E 11 15 6 8 1021.4 1019.5 14.4
24/09:00pm 14.6 12.3 13.1 91 0.9 E 17 22 9 12 1021.3 1019.4 14.4
24/08:30pm 14.5 12.8 13.5 94 0.6 E 15 20 8 11 1021.1 1019.2 14.4
24/08:00pm 14.9 12.3 13.1 89 1.0 E 19 26 10 14 1020.8 1018.9 14.4
24/07:30pm 15.7 13.5 13.4 86 1.3 ENE 17 22 9 12 1020.6 1018.6 14.4
24/07:00pm 15.6 14.2 13.3 86 1.3 E 13 17 7 9 1020.8 1018.9 14.4
24/06:53pm 15.6 13.7 12.9 84 1.5 E 15 20 8 11 1020.7 1018.8 14.4
24/06:30pm 16.2 14.0 13.3 83 1.7 E 17 24 9 13 1020.5 1018.5 14.4
24/06:00pm 17.5 14.9 13.2 76 2.5 E 19 26 10 14 1020.2 1018.2 14.4
24/05:30pm 17.9 14.5 12.6 71 3.0 E 22 30 12 16 1020.1 1018.1 14.4
24/05:00pm 17.7 14.5 13.2 75 2.6 E 22 30 12 16 1020.2 1018.2 14.4
24/04:30pm 19.1 15.6 13.5 70 3.3 E 24 33 13 18 1020.0 1018.0 14.4
24/04:00pm 20.3 16.8 13.3 64 4.1 E 24 30 13 16 1020.1 1018.1 13.0
24/03:30pm 18.9 15.9 13.7 72 3.1 ESE 22 32 12 17 1020.5 1018.5 10.8
24/03:00pm 19.6 17.0 13.8 69 3.4 SE 20 24 11 13 1020.8 1018.9 8.2
24/02:30pm 19.9 17.1 13.1 65 4.0 ESE 20 28 11 15 1020.9 1019.0 5.2
24/02:00pm 19.8 17.4 12.6 63 4.2 E 17 24 9 13 1021.2 1019.3 1.8
24/01:30pm 18.1 16.0 12.5 70 3.2 ESE 15 19 8 10 1021.7 1019.7 0.2
24/01:00pm 17.7 15.2 12.4 71 3.0 E 17 22 9 12 1022.1 1020.2 0.2
24/12:30pm 17.4 15.3 12.3 72 2.9 ESE 15 22 8 12 1022.5 1020.6 0.2
24/12:00pm 17.1 14.6 12.4 74 2.7 E 17 20 9 11 1022.6 1020.7 0.2
24/11:38am 16.7 14.3 12.5 76 2.4 ESE 17 24 9 13 1022.7 1020.8 0.0
24/11:30am 16.5 13.5 12.5 77 2.3 ESE 20 26 11 14 1022.8 1020.9 0.0
24/11:21am 16.3 13.2 12.3 77 2.3 ESE 20 28 11 15 1022.8 1020.9 0.0
24/11:00am 16.7 14.0 13.0 79 2.1 ESE 19 24 10 13 1022.8 1020.9 0.0
24/10:33am 16.1 13.1 12.7 80 1.9 ESE 20 28 11 15 1022.9 1021.0 0.0
24/10:30am 16.0 13.2 12.7 81 1.9 ESE 19 26 10 14 1022.9 1021.0 0.0
24/10:00am 15.5 13.2 13.0 85 1.4 SE 17 24 9 13 1022.7 1020.8 0.0
24/09:30am 15.2 13.4 13.2 88 1.1 SE 15 20 8 11 1022.4 1020.5 0.0
24/09:00am 14.8 13.0 13.2 90 0.9 ESE 15 19 8 10 1022.4 1020.5 1.2
24/08:30am 14.6 12.8 13.3 92 0.7 ESE 15 20 8 11 1022.2 1020.3 1.2
24/08:00am 14.2 11.9 12.9 92 0.7 ESE 17 24 9 13 1021.9 1019.9 1.2
24/07:30am 14.2 11.9 13.1 93 0.6 ESE 17 22 9 12 1021.6 1019.6 1.0
24/07:00am 13.8 12.6 12.9 94 0.5 ESE 11 17 6 9 1021.6 1019.6 1.0
24/06:30am 14.0 12.5 13.2 95 0.5 SE 13 17 7 9 1021.6 1019.6 1.0
24/06:00am 13.9 12.8 13.1 95 0.5 SE 11 15 6 8 1021.4 1019.5 1.0
24/05:30am 13.7 12.1 12.8 94 0.5 SE 13 17 7 9 1021.1 1019.2 1.0
24/05:00am 14.1 11.8 13.1 94 0.6 ESE 17 24 9 13 1020.9 1019.0 1.0
24/04:30am 14.4 13.1 13.6 95 0.5 SE 13 17 7 9 1020.8 1018.9 1.0
24/04:00am 14.2 12.5 13.6 96 0.3 SE 15 22 8 12 1020.9 1019.0 1.0
24/03:30am 14.4 13.9 13.9 97 0.3 ESE 9 15 5 8 1020.9 1019.0 0.8
24/03:00am 14.3 13.8 13.8 97 0.3 ESE 9 15 5 8 1020.9 1019.0 0.8
24/02:30am 14.4 13.5 13.8 96 0.3 SE 11 15 6 8 1021.2 1019.3 0.8
24/02:00am 14.5 13.6 13.7 95 0.5 SE 11 15 6 8 1021.2 1019.3 0.8
24/01:30am 14.5 13.7 13.9 96 0.3 SE 11 13 6 7 1021.3 1019.4 0.8
24/01:00am 14.5 13.3 13.9 96 0.3 SSE 13 17 7 9 1021.3 1019.4 0.8
24/12:30am 14.6 13.7 13.6 94 0.6 SSE 11 17 6 9 1021.3 1019.4 0.8

Latest Capital City Observations: Canberra | Sydney | Melbourne | Brisbane | Adelaide | Perth | Hobart | Darwin

Other Formats:

Comma delimited format used in spreadsheet applications
http://www.bom.gov.au/fwo/IDN60903/IDN60903.95716.axf

JavaScript Object Notation format (JSON) in row-major order
http://www.bom.gov.au/fwo/IDN60903/IDN60903.95716.json